Flight Number: EUR2033 Duration: 0:45
Departure: Munich Int'l (EDDM) at 06:45 Distance: 192 Nm
Arrival: Vienna Schwechat (LOWW) at 07:30 Equipment: B737

Weather Information
Munchen, Germany (EDDM) 48-21N 011-47E Nov 19, 2017 - 10:20 PM EST / 2017.11.20 0320 UTC
Wind: from the W (260 degrees) at 15 MPH (13 KT):0
Visibility: greater than 7 mile(s):0 Temperature: 35 F (2 C)
Windchill: 24 F (-4 C):1 Dew Point: 32 F (0 C) Relative Humidity: 86% Pressure (altimeter): 30.15 in. Hg (1021 hPa)
ob: EDDM 200320Z 26013KT CAVOK 02/M00 Q1021 NOSIG cycle: 3
Sunrise: 06:32 Sunset: 15:24 (UTC)

Wien / Schwechat-Flughafen, Austria (LOWW) 48-07N 016-34E 190M Nov 19, 2017 - 10:20 PM EST / 2017.11.20 0320 UTC
Wind: from the W (280 degrees) at 29 MPH (25 KT) gusting to 40 MPH (35 KT):0
Visibility: greater than 7 mile(s):0
Sky conditions: mostly cloudy Temperature: 41 F (5 C) Dew Point: 32 F (0 C) Relative Humidity: 70% Pressure (altimeter): 29.94 in. Hg (1014 hPa)
ob: LOWW 200320Z 28025G35KT 9999 FEW045 BKN055 BKN120 05/M00 Q1014 NOSIG cycle: 3
Sunrise: 06:12 Sunset: 15:06 (UTC)

TAF:2017/11/19 18:18 TAF LOWW 191715Z 1918/2024 29015G25KT 9999 FEW030 BKN050 TX07/2012Z TN04/2100Z TEMPO 1918/1924 28014KT TEMPO 2002/2007 29025G38KT SHRA SCT030TCU BKN040 FM201400 28012KT CAVOK BECMG 2021/2023 9999 -RA OVC050

Previous Pireps for this route
Date Aircraft Flight time Fuel used Landing rate On time
2012-09-27B7370.595900-312No
2012-10-23B73701.1010845-584No
2012-12-29B737.4343000No
2013-03-26B7371.1100000No
2013-04-23B7372120000No
2013-05-28B7370.5350000No
2013-07-07B73701.128013-665No
2013-07-09B73700.545867-668No
2013-07-11B73700.465508-398No
2013-07-23B73700.505000-350No
2013-10-26B73701.178464-134No
2014-03-23B73701.098745-348Yes
2014-06-25B7371.2032540No
2014-08-23B73701.056921-175Yes
2014-12-08B73701.0052030Charter
2015-01-12B73701.155483-96Yes
2015-01-13B73701.175392-243Yes
2015-01-27B73701.146651-138Yes
2015-03-12B73700.524863-168Yes
2015-03-28B73700.413913-98Yes
2015-04-06B73700.442904-152Yes
2015-07-12B7370.4651380Yes
2015-07-15B7370.5053240Yes
2015-08-17B77701.4917819-556Charter
2015-12-18B73701.045799-361Charter
2016-07-23B7371.0410312-184Yes
(pireps marked green are flown by you)

Route map